Time;durP1;ratioP1;P1;durP2;ratioP2;P2;SDS_P1;SDS_P2;PMS_P1;PMS_P2;Temp;Humidity;BMP_temperature;BMP_pressure;BME280_temperature;BME280_humidity;BME280_pressure;Samples;Min_cycle;Max_cycle;Signal;HPM_P1;HPM_P2
2022/05/03 00:01:25;;;;;;;6.85;6.15;;;;;;;;;;4989308;28;20062;-71
2022/05/03 00:03:59;;;;;;;7.97;6.65;;;;;;;;;;4993138;28;20038;-70
2022/05/03 00:06:34;;;;;;;9.25;6.57;;;;;;;;;;4984069;28;20128;-70
2022/05/03 00:09:07;;;;;;;7.65;6.43;;;;;;;;;;4995661;28;20045;-70
2022/05/03 00:11:43;;;;;;;7.50;6.30;;;;;;;;;;4987483;28;20045;-70
2022/05/03 00:14:42;;;;;;;8.75;6.53;;;;;;;;;;4984528;28;20057;-70
2022/05/03 00:17:08;;;;;;;8.07;6.50;;;;;;;;;;4986301;28;20121;-70
2022/05/03 00:19:34;;;;;;;7.13;6.25;;;;;;;;;;4985918;28;20034;-70
2022/05/03 00:21:59;;;;;;;8.35;6.55;;;;;;;;;;4984253;28;20046;-70
2022/05/03 00:24:25;;;;;;;9.73;7.40;;;;;;;;;;4984110;28;20049;-70
2022/05/03 00:26:51;;;;;;;8.20;7.03;;;;;;;;;;4984122;28;20069;-69
2022/05/03 00:29:17;;;;;;;11.65;6.82;;;;;;;;;;4982821;28;20117;-69
2022/05/03 00:31:44;;;;;;;7.97;6.38;;;;;;;;;;4987281;28;20038;-70
2022/05/03 00:34:11;;;;;;;13.05;6.93;;;;;;;;;;4984057;28;20039;-69
2022/05/03 00:36:36;;;;;;;8.80;7.30;;;;;;;;;;4983852;28;20030;-69
2022/05/03 00:39:02;;;;;;;11.65;8.25;;;;;;;;;;4983172;28;20042;-69
2022/05/03 00:41:44;;;;;;;12.93;9.52;;;;;;;;;;4984789;28;20113;-69
2022/05/03 00:44:56;;;;;;;15.82;12.52;;;;;;;;;;4990074;28;20057;-69
2022/05/03 00:47:51;;;;;;;15.98;12.48;;;;;;;;;;4985514;28;20491;-70
2022/05/03 00:50:26;;;;;;;12.93;10.27;;;;;;;;;;4983130;28;20035;-70
2022/05/03 00:53:01;;;;;;;12.15;9.65;;;;;;;;;;4983375;28;20034;-69
2022/05/03 00:56:01;;;;;;;13.07;9.00;;;;;;;;;;4983435;28;20073;-70
2022/05/03 00:58:51;;;;;;;11.27;8.23;;;;;;;;;;4982919;28;20141;-69
2022/05/03 01:01:35;;;;;;;13.23;9.75;;;;;;;;;;4986655;28;20053;-70
2022/05/03 01:04:29;;;;;;;16.20;9.25;;;;;;;;;;4983250;28;20046;-69
2022/05/03 01:07:18;;;;;;;11.98;9.65;;;;;;;;;;4983412;28;20038;-70
2022/05/03 01:09:50;;;;;;;11.52;8.80;;;;;;;;;;4943233;28;20046;-69
2022/05/03 01:12:53;;;;;;;10.13;7.63;;;;;;;;;;4983390;28;20030;-69
2022/05/03 01:15:22;;;;;;;14.02;8.32;;;;;;;;;;4984861;28;20034;-69
2022/05/03 01:18:21;;;;;;;11.68;9.32;;;;;;;;;;4983487;28;20490;-69
2022/05/03 01:21:14;;;;;;;13.30;8.25;;;;;;;;;;4982951;28;19921;-69
2022/05/03 01:23:43;;;;;;;10.52;8.10;;;;;;;;;;4982891;28;20042;-69
2022/05/03 01:26:47;;;;;;;11.77;8.50;;;;;;;;;;4982694;28;20125;-69
2022/05/03 01:29:34;;;;;;;14.25;9.00;;;;;;;;;;4982787;28;20042;-69
2022/05/03 01:32:08;;;;;;;13.35;10.20;;;;;;;;;;4986994;28;20117;-69
2022/05/03 01:34:35;;;;;;;14.27;10.90;;;;;;;;;;4984597;28;20060;-69
2022/05/03 01:37:00;;;;;;;15.38;10.82;;;;;;;;;;4983301;28;20492;-70
2022/05/03 01:40:01;;;;;;;14.15;10.60;;;;;;;;;;4976638;28;20038;-69
2022/05/03 01:42:45;;;;;;;14.68;9.30;;;;;;;;;;4997900;28;20045;-69
2022/05/03 01:45:11;;;;;;;12.00;8.82;;;;;;;;;;4982649;28;20030;-69
2022/05/03 01:48:16;;;;;;;10.70;9.45;;;;;;;;;;4990820;28;20049;-70
2022/05/03 01:50:43;;;;;;;18.42;11.48;;;;;;;;;;4982771;28;20129;-70
2022/05/03 01:53:23;;;;;;;20.35;11.20;;;;;;;;;;4983358;28;20096;-69
2022/05/03 01:56:19;;;;;;;24.92;13.05;;;;;;;;;;4983384;28;20042;-70
2022/05/03 01:59:05;;;;;;;29.58;16.83;;;;;;;;;;4982263;28;20085;-70
2022/05/03 02:01:39;;;;;;;22.67;12.88;;;;;;;;;;4985661;28;20038;-70
2022/05/03 02:04:30;;;;;;;26.52;14.90;;;;;;;;;;4982886;28;20034;-69
2022/05/03 02:07:06;;;;;;;24.88;13.75;;;;;;;;;;4982773;28;20038;-70
2022/05/03 02:09:40;;;;;;;26.15;12.70;;;;;;;;;;4984948;28;20077;-70
2022/05/03 02:12:14;;;;;;;21.55;12.23;;;;;;;;;;4983193;28;20062;-69
2022/05/03 02:14:51;;;;;;;20.58;12.88;;;;;;;;;;4983096;28;20602;-71
2022/05/03 02:17:35;;;;;;;20.30;11.82;;;;;;;;;;4985829;28;20038;-71
2022/05/03 02:20:14;;;;;;;18.02;11.48;;;;;;;;;;4987536;28;20042;-71
2022/05/03 02:22:42;;;;;;;18.70;11.30;;;;;;;;;;4990927;28;20053;-70
2022/05/03 02:25:17;;;;;;;15.35;10.75;;;;;;;;;;4982330;28;20045;-70
2022/05/03 02:27:52;;;;;;;16.73;11.27;;;;;;;;;;4982052;28;20466;-70
2022/05/03 02:30:18;;;;;;;18.88;10.70;;;;;;;;;;4990618;28;20041;-70
2022/05/03 02:32:56;;;;;;;14.77;10.95;;;;;;;;;;4983612;28;20038;-70
2022/05/03 02:35:24;;;;;;;12.10;9.18;;;;;;;;;;4979255;28;20038;-70
2022/05/03 02:38:02;;;;;;;16.75;11.40;;;;;;;;;;4981843;28;20563;-70
2022/05/03 02:40:29;;;;;;;15.02;10.45;;;;;;;;;;4983809;28;20411;-71
2022/05/03 02:42:56;;;;;;;15.52;10.38;;;;;;;;;;4985601;28;20034;-71
2022/05/03 02:45:22;;;;;;;16.65;10.43;;;;;;;;;;4988769;28;20158;-70
2022/05/03 02:48:01;;;;;;;21.23;13.95;;;;;;;;;;4982635;28;20121;-70
2022/05/03 02:51:00;;;;;;;24.42;16.27;;;;;;;;;;4982690;28;20046;-70
2022/05/03 02:53:51;;;;;;;20.30;14.70;;;;;;;;;;4937821;28;20050;-70
2022/05/03 02:56:24;;;;;;;15.82;12.65;;;;;;;;;;4982068;28;20112;-70
2022/05/03 02:59:10;;;;;;;17.85;12.35;;;;;;;;;;4981277;28;20034;-70
2022/05/03 03:01:57;;;;;;;12.43;10.63;;;;;;;;;;4985204;28;20033;-71
2022/05/03 03:04:34;;;;;;;16.33;11.80;;;;;;;;;;4983580;28;20062;-70
2022/05/03 03:07:02;;;;;;;25.73;16.40;;;;;;;;;;4979277;28;20053;-70
2022/05/03 03:09:49;;;;;;;22.65;15.55;;;;;;;;;;4981325;28;20048;-70
2022/05/03 03:12:29;;;;;;;18.20;12.32;;;;;;;;;;4979977;28;20053;-70
2022/05/03 03:15:04;;;;;;;18.50;12.20;;;;;;;;;;4983432;28;20034;-70
2022/05/03 03:17:33;;;;;;;15.43;11.63;;;;;;;;;;4981229;28;20034;-70
2022/05/03 03:19:59;;;;;;;14.88;11.82;;;;;;;;;;4981689;28;20046;-70
2022/05/03 03:22:30;;;;;;;15.88;12.07;;;;;;;;;;4981760;28;20049;-70
2022/05/03 03:24:58;;;;;;;16.90;12.18;;;;;;;;;;4980943;28;20038;-70
2022/05/03 03:27:26;;;;;;;15.25;11.57;;;;;;;;;;4981303;28;20887;-70
2022/05/03 03:29:56;;;;;;;17.17;10.95;;;;;;;;;;4989476;28;20034;-70
2022/05/03 03:32:26;;;;;;;18.48;14.10;;;;;;;;;;4984836;28;20042;-70
2022/05/03 03:34:56;;;;;;;28.38;18.17;;;;;;;;;;4981671;28;20030;-70
2022/05/03 03:37:30;;;;;;;19.42;13.68;;;;;;;;;;4983276;28;20556;-70
2022/05/03 03:39:56;;;;;;;20.08;13.55;;;;;;;;;;4979221;28;20492;-71
2022/05/03 03:42:21;;;;;;;19.63;13.85;;;;;;;;;;4986059;28;20570;-70
2022/05/03 03:44:48;;;;;;;17.02;11.93;;;;;;;;;;4981447;28;20044;-70
2022/05/03 03:47:15;;;;;;;18.73;12.65;;;;;;;;;;4982432;28;20046;-70
2022/05/03 03:49:41;;;;;;;20.17;14.32;;;;;;;;;;4988084;28;20117;-70
2022/05/03 03:52:08;;;;;;;21.33;14.05;;;;;;;;;;4988139;28;20491;-69
2022/05/03 03:54:35;;;;;;;16.40;12.18;;;;;;;;;;4981250;28;20153;-69
2022/05/03 03:57:03;;;;;;;18.38;11.90;;;;;;;;;;4981725;28;20419;-69
2022/05/03 03:59:31;;;;;;;15.10;11.02;;;;;;;;;;4983070;28;20045;-69
2022/05/03 04:02:01;;;;;;;15.38;10.45;;;;;;;;;;4984455;28;20042;-69
2022/05/03 04:04:33;;;;;;;15.38;10.25;;;;;;;;;;4981186;28;20099;-69
2022/05/03 04:06:59;;;;;;;16.17;10.05;;;;;;;;;;4981272;28;20038;-69
2022/05/03 04:09:25;;;;;;;11.68;8.07;;;;;;;;;;4980176;28;20561;-69
2022/05/03 04:11:50;;;;;;;52.53;6.32;;;;;;;;;;4983899;28;20053;-69
2022/05/03 04:14:16;;;;;;;62.42;6.18;;;;;;;;;;4986512;28;20041;-69
2022/05/03 04:16:42;;;;;;;6.70;5.05;;;;;;;;;;4985746;28;20405;-69
2022/05/03 04:19:08;;;;;;;13.32;5.07;;;;;;;;;;4986405;28;20502;-69
2022/05/03 04:21:34;;;;;;;12.85;6.00;;;;;;;;;;4981066;28;20088;-69
2022/05/03 04:24:00;;;;;;;6.57;5.88;;;;;;;;;;4983618;28;20502;-69
2022/05/03 04:26:26;;;;;;;28.13;7.28;;;;;;;;;;4986620;28;20371;-69
2022/05/03 04:29:00;;;;;;;19.77;6.22;;;;;;;;;;4987923;28;20062;-71
2022/05/03 04:31:30;;;;;;;10.65;4.95;;;;;;;;;;4989320;28;20116;-69
2022/05/03 04:33:56;;;;;;;8.93;5.88;;;;;;;;;;4986255;28;20173;-69
2022/05/03 04:36:21;;;;;;;11.25;6.50;;;;;;;;;;4984853;28;20495;-69
2022/05/03 04:38:48;;;;;;;8.73;5.70;;;;;;;;;;4983410;28;20049;-67
2022/05/03 04:41:13;;;;;;;11.00;6.00;;;;;;;;;;4984085;28;20046;-69
2022/05/03 04:43:39;;;;;;;13.65;5.00;;;;;;;;;;4986834;28;20058;-70
2022/05/03 04:46:04;;;;;;;12.68;5.57;;;;;;;;;;4992338;28;20038;-70
2022/05/03 04:48:30;;;;;;;7.15;5.78;;;;;;;;;;4983023;28;20070;-69
2022/05/03 04:50:55;;;;;;;6.10;5.50;;;;;;;;;;4982539;28;20658;-72
2022/05/03 04:53:22;;;;;;;7.60;6.38;;;;;;;;;;4983242;28;20093;-71
2022/05/03 04:55:48;;;;;;;7.00;6.30;;;;;;;;;;4982045;28;20050;-69
2022/05/03 05:00:49;;;;;;;9.25;7.55;;;;;;;;;;5804880;22;20762;-69
2022/05/03 05:03:14;;;;;;;9.38;7.65;;;;;;;;;;4980888;28;20049;-70
2022/05/03 05:05:40;;;;;;;9.23;7.43;;;;;;;;;;4981599;28;20429;-69
2022/05/03 05:08:07;;;;;;;9.30;7.28;;;;;;;;;;4982129;28;20149;-69
2022/05/03 05:10:32;;;;;;;9.13;6.32;;;;;;;;;;4983126;28;20041;-70
2022/05/03 05:13:01;;;;;;;8.85;5.75;;;;;;;;;;4982832;28;20038;-69
2022/05/03 05:15:28;;;;;;;8.32;5.80;;;;;;;;;;4981993;28;20038;-70
2022/05/03 05:17:58;;;;;;;7.15;5.75;;;;;;;;;;4964048;28;20038;-71
2022/05/03 05:20:25;;;;;;;5.05;4.55;;;;;;;;;;4981510;28;20914;-70
2022/05/03 05:22:51;;;;;;;4.32;3.58;;;;;;;;;;4981504;28;20038;-71
2022/05/03 05:25:16;;;;;;;3.30;3.10;;;;;;;;;;4981682;28;20128;-70
2022/05/03 05:27:42;;;;;;;3.33;3.13;;;;;;;;;;4982475;28;20125;-71
2022/05/03 05:30:08;;;;;;;6.35;3.17;;;;;;;;;;4983510;28;20399;-70
2022/05/03 05:32:34;;;;;;;3.72;3.35;;;;;;;;;;4982723;28;20117;-70
2022/05/03 05:35:00;;;;;;;3.85;3.55;;;;;;;;;;4981437;28;20038;-70
2022/05/03 05:37:25;;;;;;;3.67;3.38;;;;;;;;;;4981732;28;20100;-70
2022/05/03 05:39:51;;;;;;;3.20;2.90;;;;;;;;;;4982723;28;20900;-70
2022/05/03 05:42:16;;;;;;;4.32;3.13;;;;;;;;;;4982967;28;20046;-71
2022/05/03 05:44:41;;;;;;;3.58;3.28;;;;;;;;;;4982830;28;20073;-70
2022/05/03 05:47:07;;;;;;;3.25;2.95;;;;;;;;;;4981560;28;20049;-70
2022/05/03 05:49:32;;;;;;;3.60;3.30;;;;;;;;;;4981999;28;20096;-70
2022/05/03 05:54:43;;;;;;;4.22;3.55;;;;;;;;;;4981299;28;20897;-70
2022/05/03 05:57:08;;;;;;;3.58;3.28;;;;;;;;;;4981732;28;20085;-70
2022/05/03 05:59:34;;;;;;;3.72;3.42;;;;;;;;;;4980914;28;20141;-70
2022/05/03 06:01:59;;;;;;;4.50;3.10;;;;;;;;;;4982330;28;20104;-70
2022/05/03 06:04:27;;;;;;;3.30;3.00;;;;;;;;;;4982505;28;20038;-70
2022/05/03 06:06:56;;;;;;;3.08;2.85;;;;;;;;;;4982026;28;20057;-70
2022/05/03 06:09:22;;;;;;;3.40;2.75;;;;;;;;;;4980882;28;20049;-70
2022/05/03 06:11:48;;;;;;;5.60;2.83;;;;;;;;;;4982550;28;20036;-70
2022/05/03 06:14:13;;;;;;;4.18;3.00;;;;;;;;;;4982305;28;20038;-70
2022/05/03 06:16:52;;;;;;;2.80;2.15;;;;;;;;;;4981494;28;20537;-70
2022/05/03 06:19:19;;;;;;;2.60;2.10;;;;;;;;;;4981888;28;20125;-69
2022/05/03 06:21:45;;;;;;;3.33;2.30;;;;;;;;;;4980946;28;20095;-70
2022/05/03 06:24:10;;;;;;;4.07;2.28;;;;;;;;;;4981546;28;20129;-70
2022/05/03 06:26:36;;;;;;;3.90;1.90;;;;;;;;;;4981421;28;20501;-71
2022/05/03 06:29:03;;;;;;;2.03;1.88;;;;;;;;;;4981722;28;20038;-69
2022/05/03 06:31:29;;;;;;;1.55;1.45;;;;;;;;;;4981402;28;20038;-70
2022/05/03 06:33:55;;;;;;;2.08;1.88;;;;;;;;;;4981406;28;20038;-69
2022/05/03 06:36:21;;;;;;;3.40;1.90;;;;;;;;;;4982143;28;20041;-70
2022/05/03 06:38:46;;;;;;;3.45;1.65;;;;;;;;;;4981005;28;20380;-70
2022/05/03 06:41:12;;;;;;;2.45;2.25;;;;;;;;;;4982201;28;20056;-70
2022/05/03 06:43:37;;;;;;;2.72;2.53;;;;;;;;;;4979700;28;20380;-69
2022/05/03 06:46:03;;;;;;;2.90;2.70;;;;;;;;;;4980898;28;20503;-69
2022/05/03 06:48:29;;;;;;;2.90;2.70;;;;;;;;;;4980153;28;20038;-69
2022/05/03 06:50:54;;;;;;;5.32;2.63;;;;;;;;;;4982042;28;20114;-69
2022/05/03 06:53:20;;;;;;;2.28;2.08;;;;;;;;;;4980451;28;20042;-70
2022/05/03 06:55:46;;;;;;;2.83;2.58;;;;;;;;;;4979933;28;20046;-69
2022/05/03 06:58:13;;;;;;;2.40;2.20;;;;;;;;;;4979972;28;20085;-69
2022/05/03 07:00:38;;;;;;;3.05;2.30;;;;;;;;;;4980430;28;20069;-69
2022/05/03 07:03:04;;;;;;;2.40;2.20;;;;;;;;;;4981688;28;20101;-70
2022/05/03 07:05:29;;;;;;;2.17;2.00;;;;;;;;;;4979203;28;20097;-70
2022/05/03 07:07:56;;;;;;;3.60;2.03;;;;;;;;;;4980332;28;20045;-70
2022/05/03 07:10:21;;;;;;;2.55;2.03;;;;;;;;;;4981616;28;20925;-69
2022/05/03 07:12:47;;;;;;;3.13;1.88;;;;;;;;;;4981318;28;20172;-70
2022/05/03 07:15:12;;;;;;;1.98;1.88;;;;;;;;;;4979707;28;20084;-70
2022/05/03 07:23:06;;;;;;;1.20;1.10;;;;;;;;;;4979522;28;20057;-69
2022/05/03 07:25:32;;;;;;;2.95;1.60;;;;;;;;;;4980763;28;20058;-70
2022/05/03 07:27:58;;;;;;;4.95;1.88;;;;;;;;;;4978028;28;20042;-70
2022/05/03 07:30:24;;;;;;;2.03;1.80;;;;;;;;;;4981453;28;20037;-69
2022/05/03 07:32:49;;;;;;;4.38;2.63;;;;;;;;;;4980386;28;20034;-69
2022/05/03 07:35:15;;;;;;;1.80;1.70;;;;;;;;;;4980801;28;20080;-69
2022/05/03 07:37:40;;;;;;;1.67;1.58;;;;;;;;;;4979840;28;21064;-69
2022/05/03 07:40:08;;;;;;;2.00;1.80;;;;;;;;;;4981222;28;20029;-69
2022/05/03 07:42:34;;;;;;;3.30;1.50;;;;;;;;;;4980970;28;20073;-70
2022/05/03 07:44:59;;;;;;;2.35;2.03;;;;;;;;;;4980926;28;20134;-69
2022/05/03 07:47:25;;;;;;;2.88;2.05;;;;;;;;;;4980372;28;20038;-69
2022/05/03 07:49:51;;;;;;;3.75;1.83;;;;;;;;;;4980734;28;20046;-69
2022/05/03 07:52:16;;;;;;;2.25;1.70;;;;;;;;;;4981254;28;20038;-69
2022/05/03 07:54:43;;;;;;;1.67;1.58;;;;;;;;;;4980977;28;20038;-69
2022/05/03 07:57:09;;;;;;;1.83;1.70;;;;;;;;;;4980930;28;20136;-69
2022/05/03 07:59:34;;;;;;;2.28;1.70;;;;;;;;;;4982521;28;20185;-69
2022/05/03 08:02:00;;;;;;;2.97;1.98;;;;;;;;;;4982547;28;20146;-70
2022/05/03 08:04:25;;;;;;;1.90;1.80;;;;;;;;;;4985055;28;20530;-70
2022/05/03 08:06:51;;;;;;;5.78;1.75;;;;;;;;;;4984487;28;20117;-70
2022/05/03 08:09:17;;;;;;;2.25;1.83;;;;;;;;;;4983133;28;20080;-68
2022/05/03 08:11:43;;;;;;;2.13;1.85;;;;;;;;;;4984721;28;20076;-70
2022/05/03 08:14:08;;;;;;;4.68;1.90;;;;;;;;;;4984716;28;20733;-70
2022/05/03 08:16:34;;;;;;;2.67;2.00;;;;;;;;;;4984187;28;20045;-71
2022/05/03 08:18:59;;;;;;;2.92;2.00;;;;;;;;;;4983815;28;20513;-70
2022/05/03 08:21:26;;;;;;;2.42;2.20;;;;;;;;;;4983543;28;20042;-70
2022/05/03 08:23:52;;;;;;;2.50;2.30;;;;;;;;;;4984255;28;20434;-70
2022/05/03 08:26:17;;;;;;;9.32;2.60;;;;;;;;;;4983943;28;20042;-70
2022/05/03 08:28:43;;;;;;;2.85;2.33;;;;;;;;;;4982551;28;20716;-69
2022/05/03 08:31:09;;;;;;;2.67;2.35;;;;;;;;;;4983414;28;20522;-69
2022/05/03 08:33:35;;;;;;;3.58;2.03;;;;;;;;;;4984033;28;20034;-70
2022/05/03 08:36:00;;;;;;;3.17;1.98;;;;;;;;;;4983690;28;20069;-68
2022/05/03 08:43:54;;;;;;;8.32;2.60;;;;;;;;;;4983325;28;20164;-70
2022/05/03 08:46:21;;;;;;;6.35;2.75;;;;;;;;;;4981698;28;20414;-71
2022/05/03 08:48:52;;;;;;;9.55;2.65;;;;;;;;;;4982862;28;20034;-71
2022/05/03 08:51:21;;;;;;;3.00;2.40;;;;;;;;;;4983789;28;20049;-70
2022/05/03 08:53:47;;;;;;;3.15;2.20;;;;;;;;;;4982129;28;20049;-69
2022/05/03 08:56:17;;;;;;;4.05;2.80;;;;;;;;;;4983477;28;20132;-70
2022/05/03 08:58:43;;;;;;;4.72;2.72;;;;;;;;;;4983040;28;20466;-70
2022/05/03 09:01:09;;;;;;;4.03;2.80;;;;;;;;;;4983492;28;20156;-69
2022/05/03 09:03:37;;;;;;;2.70;2.50;;;;;;;;;;4981507;28;21160;-69
2022/05/03 09:06:03;;;;;;;5.03;2.63;;;;;;;;;;4982891;28;20046;-70
2022/05/03 09:08:29;;;;;;;3.15;2.38;;;;;;;;;;4983030;28;20046;-69
2022/05/03 09:10:55;;;;;;;3.75;2.42;;;;;;;;;;4983606;28;20080;-70
2022/05/03 09:13:23;;;;;;;3.88;2.58;;;;;;;;;;4983302;28;20081;-70
2022/05/03 09:15:57;;;;;;;2.70;2.50;;;;;;;;;;4981810;28;20035;-69
2022/05/03 09:18:29;;;;;;;2.90;2.60;;;;;;;;;;4983388;28;20687;-70
2022/05/03 09:23:48;;;;;;;4.07;2.88;;;;;;;;;;4982671;28;20072;-69
2022/05/03 09:26:26;;;;;;;3.25;2.80;;;;;;;;;;4981851;28;20045;-70
2022/05/03 09:29:05;;;;;;;4.57;2.85;;;;;;;;;;4982959;28;20049;-70
2022/05/03 09:31:36;;;;;;;2.92;2.60;;;;;;;;;;4983211;28;20064;-69
2022/05/03 09:34:04;;;;;;;5.13;3.00;;;;;;;;;;4982866;28;20064;-69
2022/05/03 09:36:50;;;;;;;3.60;2.60;;;;;;;;;;4982060;28;20050;-69
2022/05/03 09:39:26;;;;;;;3.05;2.70;;;;;;;;;;4982152;28;20073;-70
2022/05/03 09:42:17;;;;;;;2.90;2.60;;;;;;;;;;4983104;28;20038;-70
2022/05/03 09:44:54;;;;;;;3.33;2.20;;;;;;;;;;4983307;28;20096;-69
2022/05/03 09:47:25;;;;;;;7.75;3.03;;;;;;;;;;4982162;28;20030;-70
2022/05/03 09:49:51;;;;;;;3.42;2.78;;;;;;;;;;4982588;28;20039;-70
2022/05/03 09:52:30;;;;;;;5.00;2.20;;;;;;;;;;4982751;28;20036;-70
2022/05/03 09:54:59;;;;;;;2.92;2.35;;;;;;;;;;4982101;28;20053;-70
2022/05/03 09:57:27;;;;;;;3.65;2.58;;;;;;;;;;4982960;28;20042;-69
2022/05/03 09:59:54;;;;;;;4.05;2.60;;;;;;;;;;4980602;28;20034;-70
2022/05/03 10:02:22;;;;;;;2.33;1.90;;;;;;;;;;4964864;28;20050;-71
2022/05/03 10:04:50;;;;;;;6.85;2.03;;;;;;;;;;4982948;28;20045;-71
2022/05/03 10:07:16;;;;;;;4.22;2.00;;;;;;;;;;4982459;28;20035;-70
2022/05/03 10:09:44;;;;;;;4.03;2.15;;;;;;;;;;4981032;28;20395;-70
2022/05/03 10:12:11;;;;;;;2.00;1.90;;;;;;;;;;4982294;28;20057;-69
2022/05/03 10:14:38;;;;;;;4.70;1.85;;;;;;;;;;4982279;28;20030;-69
2022/05/03 10:23:00;;;;;;;2.58;1.80;;;;;;;;;;4981425;28;20121;-71
2022/05/03 10:25:49;;;;;;;1.88;1.77;;;;;;;;;;4981513;28;20125;-71
2022/05/03 10:28:15;;;;;;;1.73;1.48;;;;;;;;;;4980938;28;20100;-70
2022/05/03 10:31:13;;;;;;;1.80;1.70;;;;;;;;;;4981603;28;20030;-69
2022/05/03 10:33:40;;;;;;;2.10;1.70;;;;;;;;;;4975894;28;20054;-70
2022/05/03 10:36:30;;;;;;;3.63;1.85;;;;;;;;;;4981045;28;20061;-67
2022/05/03 10:39:18;;;;;;;2.08;1.88;;;;;;;;;;4981093;28;20514;-70
2022/05/03 10:42:02;;;;;;;3.58;1.60;;;;;;;;;;4981541;28;20046;-70
2022/05/03 10:44:45;;;;;;;1.70;1.60;;;;;;;;;;4981157;28;20479;-70
2022/05/03 10:47:13;;;;;;;1.83;1.52;;;;;;;;;;4981533;28;20053;-72
2022/05/03 10:50:12;;;;;;;2.15;1.70;;;;;;;;;;4981351;28;20042;-70
2022/05/03 10:52:39;;;;;;;1.70;1.60;;;;;;;;;;4981698;28;20046;-72
2022/05/03 10:55:06;;;;;;;2.42;1.67;;;;;;;;;;4980297;28;20511;-70
2022/05/03 10:57:32;;;;;;;2.50;1.67;;;;;;;;;;4981430;28;20045;-71
2022/05/03 10:59:57;;;;;;;3.65;1.63;;;;;;;;;;4981218;28;20137;-71
2022/05/03 11:02:23;;;;;;;1.95;1.50;;;;;;;;;;4980955;28;20121;-69
2022/05/03 11:05:14;;;;;;;2.83;1.52;;;;;;;;;;4980408;28;20121;-70
2022/05/03 11:07:41;;;;;;;4.05;1.55;;;;;;;;;;4981740;28;20570;-71
2022/05/03 11:10:39;;;;;;;1.92;1.58;;;;;;;;;;4981196;28;20129;-70
2022/05/03 11:13:39;;;;;;;2.42;1.48;;;;;;;;;;4979663;28;20133;-69
2022/05/03 11:16:27;;;;;;;5.25;1.40;;;;;;;;;;4980388;28;20030;-69
2022/05/03 11:18:53;;;;;;;2.10;1.60;;;;;;;;;;4979763;28;20153;-68
2022/05/03 11:21:20;;;;;;;1.98;1.60;;;;;;;;;;4964130;28;20159;-68
2022/05/03 11:23:53;;;;;;;1.73;1.45;;;;;;;;;;4963577;28;20589;-68
2022/05/03 11:26:20;;;;;;;1.67;1.38;;;;;;;;;;4979607;28;20034;-69
2022/05/03 11:28:48;;;;;;;2.50;1.75;;;;;;;;;;4980270;28;20026;-69
2022/05/03 11:31:19;;;;;;;3.28;2.00;;;;;;;;;;4963523;28;20122;-69
2022/05/03 11:33:51;;;;;;;3.53;2.25;;;;;;;;;;4982340;28;20502;-69
2022/05/03 11:36:17;;;;;;;2.85;1.98;;;;;;;;;;4984868;28;20049;-69
2022/05/03 11:38:42;;;;;;;2.85;2.08;;;;;;;;;;4984112;28;20034;-70
2022/05/03 11:41:09;;;;;;;2.13;1.70;;;;;;;;;;4985291;28;20395;-71
2022/05/03 11:43:35;;;;;;;2.33;1.70;;;;;;;;;;4985049;28;20034;-71
2022/05/03 11:46:01;;;;;;;4.38;2.67;;;;;;;;;;4984502;28;20038;-71
2022/05/03 11:48:27;;;;;;;2.55;1.55;;;;;;;;;;4983948;28;20979;-70
2022/05/03 11:56:24;;;;;;;1.70;1.60;;;;;;;;;;4984720;28;20038;-70
2022/05/03 11:58:50;;;;;;;2.97;1.90;;;;;;;;;;4984471;28;20045;-70
2022/05/03 12:01:16;;;;;;;2.28;1.60;;;;;;;;;;4984080;28;20042;-70
2022/05/03 12:03:49;;;;;;;1.80;1.67;;;;;;;;;;4984571;28;20042;-70
2022/05/03 12:06:15;;;;;;;3.30;1.40;;;;;;;;;;4984675;28;20073;-70
2022/05/03 12:08:41;;;;;;;3.03;2.03;;;;;;;;;;4984248;28;20070;-70
2022/05/03 12:11:21;;;;;;;3.75;1.75;;;;;;;;;;4984100;28;20087;-73
2022/05/03 12:13:47;;;;;;;1.90;1.80;;;;;;;;;;4984280;28;20058;-70
2022/05/03 12:16:16;;;;;;;5.57;2.13;;;;;;;;;;4984118;28;20060;-71
2022/05/03 12:18:43;;;;;;;2.30;1.65;;;;;;;;;;4983781;28;20038;-69
2022/05/03 12:21:17;;;;;;;2.83;1.80;;;;;;;;;;4983677;28;20062;-72
2022/05/03 12:23:48;;;;;;;1.88;1.67;;;;;;;;;;4983334;28;20476;-71
2022/05/03 12:26:15;;;;;;;1.85;1.50;;;;;;;;;;4983835;28;20038;-71
2022/05/03 12:29:00;;;;;;;3.17;1.98;;;;;;;;;;4983559;28;20042;-70
2022/05/03 12:31:35;;;;;;;2.85;1.80;;;;;;;;;;4984034;28;20041;-71
2022/05/03 12:34:04;;;;;;;2.58;2.00;;;;;;;;;;4982493;28;20049;-71
2022/05/03 12:36:37;;;;;;;7.32;2.80;;;;;;;;;;4983699;28;20053;-70
2022/05/03 12:39:19;;;;;;;5.47;2.03;;;;;;;;;;4982693;28;20384;-71
2022/05/03 12:41:46;;;;;;;1.90;1.80;;;;;;;;;;4982692;28;20042;-70
2022/05/03 12:47:59;;;;;;;2.08;1.90;;;;;;;;;;4982378;28;20463;-69
2022/05/03 12:50:27;;;;;;;5.60;1.98;;;;;;;;;;4982084;28;20035;-72
2022/05/03 12:52:52;;;;;;;3.92;1.98;;;;;;;;;;4981505;28;20700;-70
2022/05/03 12:55:19;;;;;;;4.50;2.20;;;;;;;;;;4981605;28;20046;-71
2022/05/03 13:00:32;;;;;;;2.83;2.38;;;;;;;;;;4962364;28;20415;-71
2022/05/03 13:03:00;;;;;;;5.97;2.83;;;;;;;;;;4981732;28;20073;-70
2022/05/03 13:05:26;;;;;;;2.20;2.00;;;;;;;;;;4979933;28;20069;-71
2022/05/03 13:07:51;;;;;;;4.35;2.00;;;;;;;;;;4982012;28;20046;-69
2022/05/03 13:10:16;;;;;;;4.65;2.15;;;;;;;;;;4983179;28;20122;-71
2022/05/03 13:12:42;;;;;;;2.78;2.28;;;;;;;;;;4983314;28;20044;-70
2022/05/03 13:15:08;;;;;;;2.92;2.03;;;;;;;;;;4983096;28;20120;-70
2022/05/03 13:17:33;;;;;;;3.90;1.73;;;;;;;;;;4982187;28;20045;-70
2022/05/03 13:19:58;;;;;;;3.67;2.58;;;;;;;;;;4982821;28;20065;-72
2022/05/03 13:22:24;;;;;;;2.13;1.80;;;;;;;;;;4982865;28;20046;-71
2022/05/03 13:24:49;;;;;;;2.58;1.70;;;;;;;;;;4983201;28;20046;-71
2022/05/03 13:27:15;;;;;;;5.80;2.53;;;;;;;;;;4982919;28;20050;-71
2022/05/03 13:29:41;;;;;;;5.60;2.67;;;;;;;;;;4981953;28;20125;-70
2022/05/03 13:32:07;;;;;;;5.03;2.63;;;;;;;;;;4982561;28;20126;-71
2022/05/03 13:34:32;;;;;;;3.88;2.00;;;;;;;;;;4983081;28;20133;-70
2022/05/03 13:42:26;;;;;;;6.82;2.10;;;;;;;;;;4982350;28;20042;-71
2022/05/03 13:44:51;;;;;;;1.90;1.65;;;;;;;;;;4982647;28;20038;-70
2022/05/03 13:47:17;;;;;;;2.65;2.20;;;;;;;;;;4982152;28;20511;-70
2022/05/03 13:49:42;;;;;;;2.95;2.00;;;;;;;;;;4982003;28;20064;-70
2022/05/03 13:52:08;;;;;;;2.58;1.80;;;;;;;;;;4981482;28;20097;-71
2022/05/03 13:54:34;;;;;;;3.13;2.03;;;;;;;;;;4982757;28;20034;-71
2022/05/03 13:56:59;;;;;;;3.15;1.58;;;;;;;;;;4981643;28;21029;-71
2022/05/03 13:59:24;;;;;;;2.50;1.65;;;;;;;;;;4982003;28;20048;-70
2022/05/03 14:01:50;;;;;;;1.52;1.42;;;;;;;;;;4981324;28;20065;-70
2022/05/03 14:04:16;;;;;;;1.40;1.30;;;;;;;;;;4964924;28;20133;-71
2022/05/03 14:06:42;;;;;;;2.15;1.70;;;;;;;;;;4982285;28;20080;-71
2022/05/03 14:09:07;;;;;;;4.82;1.88;;;;;;;;;;4981667;28;20105;-71
2022/05/03 14:11:33;;;;;;;2.65;1.95;;;;;;;;;;4982529;28;20804;-71
2022/05/03 14:13:59;;;;;;;1.70;1.60;;;;;;;;;;4980486;28;20061;-71
2022/05/03 14:16:25;;;;;;;4.30;1.60;;;;;;;;;;4981570;28;20040;-70
2022/05/03 14:18:50;;;;;;;1.60;1.50;;;;;;;;;;4980090;28;20399;-71
2022/05/03 14:21:16;;;;;;;1.70;1.60;;;;;;;;;;4982033;28;20415;-70
2022/05/03 14:23:41;;;;;;;5.75;1.80;;;;;;;;;;4980221;28;20500;-71
2022/05/03 14:26:09;;;;;;;4.25;2.20;;;;;;;;;;4980309;28;20117;-70
2022/05/03 14:28:35;;;;;;;3.03;2.40;;;;;;;;;;4979846;28;20035;-71
2022/05/03 14:31:01;;;;;;;2.35;2.15;;;;;;;;;;4979854;28;20620;-70
2022/05/03 14:33:28;;;;;;;7.88;2.33;;;;;;;;;;4981766;28;20042;-71
2022/05/03 14:35:54;;;;;;;3.05;2.50;;;;;;;;;;4980005;28;20523;-71
2022/05/03 14:38:19;;;;;;;2.60;2.20;;;;;;;;;;4981605;28;20038;-72
2022/05/03 14:40:45;;;;;;;2.60;2.40;;;;;;;;;;4979592;28;20049;-72
2022/05/03 14:43:11;;;;;;;3.30;2.33;;;;;;;;;;4980838;28;20085;-71
2022/05/03 14:45:37;;;;;;;3.63;2.03;;;;;;;;;;4961671;28;20125;-71
2022/05/03 14:48:03;;;;;;;3.67;2.10;;;;;;;;;;4981516;28;20069;-71
2022/05/03 14:50:29;;;;;;;3.92;2.17;;;;;;;;;;4981186;28;20049;-71
2022/05/03 14:52:56;;;;;;;2.80;2.30;;;;;;;;;;4981399;28;20046;-71
2022/05/03 14:55:21;;;;;;;4.68;1.98;;;;;;;;;;4980900;28;20053;-71
2022/05/03 15:03:27;;;;;;;2.78;1.90;;;;;;;;;;4911282;28;20111;-72
2022/05/03 15:05:54;;;;;;;4.47;2.10;;;;;;;;;;4980583;28;20038;-71
2022/05/03 15:08:20;;;;;;;2.47;1.92;;;;;;;;;;4980165;28;20058;-70
2022/05/03 15:10:45;;;;;;;4.55;2.17;;;;;;;;;;4980818;28;20142;-71
2022/05/03 15:13:12;;;;;;;3.63;2.00;;;;;;;;;;4981010;28;20136;-70
2022/05/03 15:15:39;;;;;;;2.30;2.10;;;;;;;;;;4980677;28;20085;-71
2022/05/03 15:18:04;;;;;;;2.20;2.00;;;;;;;;;;4980936;28;20376;-70
2022/05/03 15:20:32;;;;;;;2.85;2.58;;;;;;;;;;4979501;28;20072;-71
2022/05/03 15:25:44;;;;;;;2.40;2.20;;;;;;;;;;4980441;28;20102;-70
2022/05/03 15:28:11;;;;;;;3.88;2.60;;;;;;;;;;4981384;28;20137;-70
2022/05/03 15:30:36;;;;;;;3.13;2.58;;;;;;;;;;4979622;28;20042;-71
2022/05/03 15:33:03;;;;;;;3.47;2.55;;;;;;;;;;4979736;28;20070;-71
2022/05/03 15:35:30;;;;;;;3.75;2.60;;;;;;;;;;4980236;28;20042;-70
2022/05/03 15:37:56;;;;;;;7.25;2.85;;;;;;;;;;4981289;28;20133;-70
2022/05/03 15:40:21;;;;;;;2.60;2.40;;;;;;;;;;4980092;28;20042;-70
2022/05/03 15:42:47;;;;;;;2.70;2.08;;;;;;;;;;4981198;28;20411;-70
2022/05/03 15:45:12;;;;;;;3.03;2.30;;;;;;;;;;4963351;28;20054;-71
2022/05/03 15:47:38;;;;;;;4.32;2.63;;;;;;;;;;4980813;28;20040;-71